Time;durP1;ratioP1;P1;durP2;ratioP2;P2;SDS_P1;SDS_P2;PMS_P1;PMS_P2;Temp;Humidity;BMP_temperature;BMP_pressure;BME280_temperature;BME280_humidity;BME280_pressure;Samples;Min_cycle;Max_cycle;Signal;HPM_P1;HPM_P2
2023/07/21 00:01:02;;;;;;;;;;;;;;;17.45;57.04;96078.69;5104009;28;19950;-68
2023/07/21 00:03:28;;;;;;;;;;;;;;;17.46;57.16;96069.66;5103945;28;20090;-69
2023/07/21 00:05:54;;;;;;;;;;;;;;;17.45;57.66;96068.88;5104789;28;19960;-69
2023/07/21 00:08:21;;;;;;;;;;;;;;;17.45;57.64;96068.09;5103913;28;20222;-69
2023/07/21 00:10:47;;;;;;;;;;;;;;;17.45;57.92;96068.88;5104628;28;19932;-69
2023/07/21 00:13:13;;;;;;;;;;;;;;;17.42;57.52;96058.78;5103870;28;19941;-69
2023/07/21 00:15:39;;;;;;;;;;;;;;;17.41;58.58;96059.09;5104689;28;20241;-71
2023/07/21 00:18:05;;;;;;;;;;;;;;;17.38;58.63;96054.31;5103806;28;19967;-74
2023/07/21 00:20:32;;;;;;;;;;;;;;;17.37;58.73;96056.19;5105960;28;19965;-76
2023/07/21 00:22:58;;;;;;;;;;;;;;;17.34;58.88;96048.75;5107551;28;20219;-76
2023/07/21 00:25:24;;;;;;;;;;;;;;;17.32;58.94;96052.75;5107618;28;20100;-76
2023/07/21 00:27:50;;;;;;;;;;;;;;;17.31;58.23;96056.47;5108333;28;20005;-77
2023/07/21 00:30:16;;;;;;;;;;;;;;;17.29;58.85;96059.38;5107602;28;19933;-77
2023/07/21 00:32:43;;;;;;;;;;;;;;;17.28;59.24;96057.00;5108029;28;20204;-77
2023/07/21 00:35:10;;;;;;;;;;;;;;;17.25;59.18;96064.41;5107927;28;19961;-71
2023/07/21 00:37:36;;;;;;;;;;;;;;;17.24;59.46;96060.19;5107832;28;19933;-70
2023/07/21 00:40:07;;;;;;;;;;;;;;;17.23;59.58;96060.44;5106909;28;19956;-69
2023/07/21 00:42:34;;;;;;;;;;;;;;;17.21;59.26;96050.13;5108151;28;19938;-69
2023/07/21 00:45:00;;;;;;;;;;;;;;;17.22;58.92;96048.28;5107702;28;20205;-69
2023/07/21 00:47:27;;;;;;;;;;;;;;;17.20;59.28;96051.19;5108004;28;19995;-69
2023/07/21 00:49:53;;;;;;;;;;;;;;;17.20;59.47;96045.09;5107669;28;19934;-69
2023/07/21 00:52:19;;;;;;;;;;;;;;;17.17;59.04;96041.13;5107101;28;20026;-74
2023/07/21 00:54:46;;;;;;;;;;;;;;;17.17;59.54;96049.06;5107012;28;19932;-73
2023/07/21 00:57:13;;;;;;;;;;;;;;;17.16;59.74;96042.19;5107016;28;19957;-83
2023/07/21 00:59:39;;;;;;;;;;;;;;;17.15;59.97;96043.25;5106825;28;19971;-83
2023/07/21 01:02:05;;;;;;;;;;;;;;;17.13;59.86;96042.72;5107468;28;20215;-83
2023/07/21 01:04:31;;;;;;;;;;;;;;;17.13;60.67;96041.94;5106915;28;20242;-83
2023/07/21 01:07:09;;;;;;;;;;;;;;;17.11;60.30;96036.88;5107619;28;20204;-83
2023/07/21 01:09:36;;;;;;;;;;;;;;;17.09;60.02;96033.72;5107615;28;20100;-83
2023/07/21 01:12:02;;;;;;;;;;;;;;;17.05;59.84;96027.41;5106721;28;19932;-68
2023/07/21 01:14:29;;;;;;;;;;;;;;;17.01;60.01;96029.78;5106675;28;19935;-68
2023/07/21 01:16:59;;;;;;;;;;;;;;;16.98;60.31;96027.66;5106613;28;19943;-69
2023/07/21 01:19:26;;;;;;;;;;;;;;;16.93;60.29;96019.72;5106066;28;19971;-69
2023/07/21 01:21:55;;;;;;;;;;;;;;;16.91;60.52;96010.47;5105810;28;20373;-70
2023/07/21 01:24:41;;;;;;;;;;;;;;;16.84;60.43;96006.25;5106451;28;19947;-69
2023/07/21 01:27:08;;;;;;;;;;;;;;;16.79;61.12;96005.44;5106127;28;20144;-69
2023/07/21 01:29:35;;;;;;;;;;;;;;;16.74;60.83;96002.81;5107182;28;19944;-76
2023/07/21 01:32:04;;;;;;;;;;;;;;;16.70;61.12;96012.34;5106296;28;19937;-75
2023/07/21 01:34:34;;;;;;;;;;;;;;;16.67;61.02;96005.69;5106185;28;20124;-82
2023/07/21 01:37:00;;;;;;;;;;;;;;;16.66;61.38;96000.69;5106777;28;19952;-82
2023/07/21 01:39:30;;;;;;;;;;;;;;;16.64;61.86;96004.38;5106900;28;19951;-81
2023/07/21 01:41:56;;;;;;;;;;;;;;;16.62;62.06;95997.78;5106981;28;19935;-82
2023/07/21 01:44:22;;;;;;;;;;;;;;;16.60;62.38;95998.03;5104976;28;19941;-82
2023/07/21 01:46:49;;;;;;;;;;;;;;;16.59;62.38;96001.75;5106854;28;20086;-83
2023/07/21 01:49:17;;;;;;;;;;;;;;;16.57;62.15;95995.16;5106502;28;19940;-70
2023/07/21 01:51:44;;;;;;;;;;;;;;;16.53;62.03;95992.25;5106237;28;19935;-70
2023/07/21 01:54:14;;;;;;;;;;;;;;;16.50;61.96;95989.31;5105919;28;20121;-71
2023/07/21 01:56:45;;;;;;;;;;;;;;;16.48;62.25;95986.16;5105769;28;19959;-70
2023/07/21 01:59:12;;;;;;;;;;;;;;;16.44;62.23;95994.63;5105730;28;19954;-71
2023/07/21 02:01:39;;;;;;;;;;;;;;;16.42;62.13;95991.47;5105663;28;19942;-70
2023/07/21 02:04:05;;;;;;;;;;;;;;;16.40;62.57;95990.13;5105636;28;19945;-70
2023/07/21 02:06:32;;;;;;;;;;;;;;;16.38;62.87;95994.91;5105585;28;19938;-75
2023/07/21 02:08:58;;;;;;;;;;;;;;;16.33;63.08;95986.94;5105628;28;19941;-84
2023/07/21 02:11:24;;;;;;;;;;;;;;;16.31;63.13;95986.41;5105583;28;19937;-84
2023/07/21 02:13:50;;;;;;;;;;;;;;;16.27;63.47;95972.91;5106243;28;19948;-83
2023/07/21 02:16:16;;;;;;;;;;;;;;;16.21;63.98;95982.72;5105497;28;19935;-83
2023/07/21 02:18:42;;;;;;;;;;;;;;;16.18;64.02;95979.81;5105373;28;19988;-81
2023/07/21 02:21:08;;;;;;;;;;;;;;;16.13;64.05;95977.97;5105338;28;19957;-84
2023/07/21 02:23:34;;;;;;;;;;;;;;;16.12;64.42;95980.88;5105992;28;19948;-94
2023/07/21 02:25:59;;;;;;;;;;;;;;;16.08;64.17;95980.59;5106061;28;20113;-71
2023/07/21 02:28:25;;;;;;;;;;;;;;;16.08;64.80;95988.53;5104454;28;19985;-94
2023/07/21 02:30:59;;;;;;;;;;;;;;;16.06;64.83;95985.34;5106182;28;19938;-80
2023/07/21 02:33:25;;;;;;;;;;;;;;;16.03;65.49;95977.97;5105924;28;19941;-82
2023/07/21 02:35:50;;;;;;;;;;;;;;;16.01;66.14;95978.22;5105060;28;19939;-79
2023/07/21 02:38:16;;;;;;;;;;;;;;;16.01;65.70;95975.56;5105105;28;19949;-79
2023/07/21 02:40:42;;;;;;;;;;;;;;;16.01;66.72;95980.06;5104898;28;19953;-79
2023/07/21 02:43:08;;;;;;;;;;;;;;;16.00;66.12;95974.00;5104972;28;19945;-71
2023/07/21 02:45:34;;;;;;;;;;;;;;;15.99;66.63;95975.03;5104945;28;19930;-70
2023/07/21 02:47:59;;;;;;;;;;;;;;;15.97;66.33;95971.06;5104557;28;19932;-71
2023/07/21 02:50:26;;;;;;;;;;;;;;;15.96;67.03;95974.78;5103729;28;19978;-71
2023/07/21 02:52:52;;;;;;;;;;;;;;;15.94;66.72;95971.63;5105518;28;19938;-70
2023/07/21 02:55:19;;;;;;;;;;;;;;;15.91;67.10;95969.47;5104773;28;20221;-70
2023/07/21 02:57:45;;;;;;;;;;;;;;;15.90;67.55;95966.06;5104690;28;19954;-69
2023/07/21 03:00:12;;;;;;;;;;;;;;;15.88;67.53;95965.53;5105433;28;20262;-70
2023/07/21 03:02:42;;;;;;;;;;;;;;;15.86;68.07;95964.19;5104582;28;20217;-75
2023/07/21 03:05:08;;;;;;;;;;;;;;;15.84;68.42;95972.41;5104510;28;19940;-73
2023/07/21 03:07:34;;;;;;;;;;;;;;;15.83;67.53;95965.50;5103359;28;20150;-74
2023/07/21 03:10:00;;;;;;;;;;;;;;;15.81;68.15;95971.06;5103891;28;19943;-74
2023/07/21 03:12:26;;;;;;;;;;;;;;;15.79;67.87;95978.47;5105256;28;19933;-74
2023/07/21 03:14:51;;;;;;;;;;;;;;;15.77;67.98;95983.22;5104398;28;19935;-74
2023/07/21 03:17:17;;;;;;;;;;;;;;;15.75;67.01;95974.75;5104898;28;20195;-73
2023/07/21 03:19:43;;;;;;;;;;;;;;;15.74;67.63;95972.38;5105155;28;19958;-68
2023/07/21 03:22:09;;;;;;;;;;;;;;;15.71;67.17;95978.94;5104940;28;19984;-68
2023/07/21 03:24:39;;;;;;;;;;;;;;;15.67;67.23;95969.16;5105145;28;19935;-69
2023/07/21 03:27:05;;;;;;;;;;;;;;;15.66;67.86;95978.13;5105195;28;19940;-69
2023/07/21 03:29:31;;;;;;;;;;;;;;;15.61;68.12;95969.16;5104321;28;19940;-70
2023/07/21 03:31:57;;;;;;;;;;;;;;;15.58;67.57;95967.03;5104324;28;19940;-69
2023/07/21 03:34:23;;;;;;;;;;;;;;;15.53;67.93;95958.28;5104806;28;20199;-69
2023/07/21 03:36:50;;;;;;;;;;;;;;;15.51;68.26;95965.69;5104171;28;19957;-70
2023/07/21 03:39:16;;;;;;;;;;;;;;;15.47;68.34;95961.97;5104973;28;19964;-79
2023/07/21 03:41:42;;;;;;;;;;;;;;;15.45;68.78;95964.09;5104220;28;19944;-70
2023/07/21 03:44:09;;;;;;;;;;;;;;;15.43;68.82;95961.69;5103531;28;20211;-70
2023/07/21 03:46:36;;;;;;;;;;;;;;;15.40;68.74;95967.50;5104124;28;19955;-70
2023/07/21 03:49:02;;;;;;;;;;;;;;;15.38;68.81;95965.13;5104098;28;20127;-69
2023/07/21 03:51:28;;;;;;;;;;;;;;;15.36;69.57;95966.44;5104264;28;19941;-70
2023/07/21 03:53:58;;;;;;;;;;;;;;;15.33;68.56;95969.59;5104677;28;20224;-70
2023/07/21 03:56:27;;;;;;;;;;;;;;;15.29;69.55;95964.03;5108939;28;20127;-70
2023/07/21 03:58:57;;;;;;;;;;;;;;;15.26;69.70;95963.75;5106955;28;20139;-73
2023/07/21 04:01:23;;;;;;;;;;;;;;;15.23;70.31;95976.44;5108991;28;19933;-87
2023/07/21 04:03:48;;;;;;;;;;;;;;;15.21;70.22;95961.91;5108586;28;19942;-87
2023/07/21 04:06:17;;;;;;;;;;;;;;;15.18;70.31;95968.50;5108883;28;19953;-87
2023/07/21 04:08:43;;;;;;;;;;;;;;;15.16;69.86;95961.88;5107917;28;19963;-87
2023/07/21 04:11:09;;;;;;;;;;;;;;;15.16;70.16;95962.69;5107889;28;20216;-86
2023/07/21 04:13:35;;;;;;;;;;;;;;;15.18;69.85;95963.22;5107926;28;19936;-85
2023/07/21 04:16:01;;;;;;;;;;;;;;;15.20;70.54;95965.59;5108706;28;20205;-85
2023/07/21 04:18:27;;;;;;;;;;;;;;;15.21;71.03;95960.06;5107569;28;19974;-77
2023/07/21 04:20:52;;;;;;;;;;;;;;;15.22;70.97;95950.28;5107594;28;20164;-77
2023/07/21 04:23:18;;;;;;;;;;;;;;;15.23;71.45;95955.31;5108526;28;20212;-77
2023/07/21 04:25:45;;;;;;;;;;;;;;;15.27;71.85;95960.09;5106429;28;20247;-78
2023/07/21 04:28:10;;;;;;;;;;;;;;;15.27;71.37;95952.16;5107641;28;19936;-78
2023/07/21 04:30:36;;;;;;;;;;;;;;;15.31;71.47;95961.16;5107534;28;19959;-78
2023/07/21 04:33:02;;;;;;;;;;;;;;;15.33;72.13;95966.94;5107509;28;19941;-78
2023/07/21 04:35:28;;;;;;;;;;;;;;;15.36;72.75;95974.38;5108346;28;19943;-75
2023/07/21 04:37:54;;;;;;;;;;;;;;;15.37;72.76;95973.31;5089294;28;19941;-69
2023/07/21 04:40:20;;;;;;;;;;;;;;;15.40;72.69;95975.44;5106706;28;19958;-69
2023/07/21 04:42:46;;;;;;;;;;;;;;;15.42;73.82;95991.81;5107559;28;20164;-69
2023/07/21 04:45:12;;;;;;;;;;;;;;;15.43;73.60;95985.47;5107758;28;20229;-68
2023/07/21 04:47:40;;;;;;;;;;;;;;;15.46;73.68;95981.53;5107718;28;19940;-68
2023/07/21 04:50:07;;;;;;;;;;;;;;;15.48;74.21;95976.78;5107182;28;19938;-68
2023/07/21 04:52:33;;;;;;;;;;;;;;;15.49;73.65;95970.44;5107055;28;19939;-73
2023/07/21 04:54:59;;;;;;;;;;;;;;;15.53;72.91;95967.00;5107128;28;19940;-73
2023/07/21 04:57:25;;;;;;;;;;;;;;;15.55;73.10;95970.19;5107440;28;19959;-77
2023/07/21 04:59:51;;;;;;;;;;;;;;;15.60;73.50;95969.41;5106017;28;19948;-77
2023/07/21 05:02:17;;;;;;;;;;;;;;;15.63;73.02;95964.38;5107101;28;19944;-75
2023/07/21 05:04:42;;;;;;;;;;;;;;;15.68;73.25;95965.47;5107363;28;19934;-76
2023/07/21 05:07:09;;;;;;;;;;;;;;;15.72;73.75;95969.97;5106027;28;19933;-76
2023/07/21 05:09:35;;;;;;;;;;;;;;;15.78;73.65;95966.28;5106273;28;19933;-70
2023/07/21 05:12:01;;;;;;;;;;;;;;;15.82;74.02;95972.66;5106859;28;19940;-84
2023/07/21 05:14:27;;;;;;;;;;;;;;;15.87;72.89;95961.28;5107469;28;19943;-76
2023/07/21 05:16:53;;;;;;;;;;;;;;;15.93;72.99;95970.00;5106622;28;19940;-75
2023/07/21 05:19:19;;;;;;;;;;;;;;;15.97;72.16;95966.56;5106552;28;19963;-75
2023/07/21 05:21:45;;;;;;;;;;;;;;;16.03;72.38;95973.47;5106694;28;20026;-75
2023/07/21 05:24:11;;;;;;;;;;;;;;;16.09;70.77;95957.59;5107110;28;19985;-77
2023/07/21 05:26:37;;;;;;;;;;;;;;;16.13;71.00;95963.94;5107281;28;19936;-77
2023/07/21 05:29:03;;;;;;;;;;;;;;;16.16;71.91;95971.34;5106788;28;19941;-74
2023/07/21 05:31:30;;;;;;;;;;;;;;;16.16;71.07;95963.41;5107227;28;19934;-69
2023/07/21 05:33:56;;;;;;;;;;;;;;;16.20;70.31;95957.31;5106322;28;19943;-69
2023/07/21 05:36:22;;;;;;;;;;;;;;;16.22;70.37;95957.06;5106568;28;19943;-69
2023/07/21 05:38:47;;;;;;;;;;;;;;;16.22;70.43;95951.78;5106185;28;19942;-69
2023/07/21 05:41:14;;;;;;;;;;;;;;;16.28;71.07;95953.34;5106817;28;19957;-69
2023/07/21 05:43:39;;;;;;;;;;;;;;;16.37;71.53;95953.59;5106127;28;19939;-69
2023/07/21 05:46:06;;;;;;;;;;;;;;;16.49;71.61;95951.47;5105581;28;20259;-69
2023/07/21 05:48:32;;;;;;;;;;;;;;;16.61;71.83;95948.56;5106504;28;19938;-70
2023/07/21 05:50:58;;;;;;;;;;;;;;;16.69;72.23;95958.56;5105996;28;19935;-70
2023/07/21 05:53:24;;;;;;;;;;;;;;;16.79;71.36;95953.25;5105579;28;19945;-70
2023/07/21 05:55:50;;;;;;;;;;;;;;;17.05;71.03;95947.94;5106099;28;19940;-70
2023/07/21 05:58:18;;;;;;;;;;;;;;;17.47;70.01;95946.66;5106672;28;19972;-70
2023/07/21 06:00:45;;;;;;;;;;;;;;;17.83;69.04;95941.16;5105656;28;19947;-71
2023/07/21 06:03:11;;;;;;;;;;;;;;;18.09;68.07;95936.44;5104425;28;19953;-70
2023/07/21 06:05:37;;;;;;;;;;;;;;;18.40;66.07;95939.63;5105615;28;19931;-84
2023/07/21 06:08:04;;;;;;;;;;;;;;;18.59;66.35;95944.22;5106474;28;19938;-69
2023/07/21 06:10:30;;;;;;;;;;;;;;;18.63;65.60;95942.59;5105593;28;19935;-69
2023/07/21 06:12:56;;;;;;;;;;;;;;;18.64;65.32;95941.50;5105525;28;19935;-69
2023/07/21 06:15:24;;;;;;;;;;;;;;;18.82;65.01;95940.03;5104496;28;20015;-69
2023/07/21 06:17:50;;;;;;;;;;;;;;;18.97;64.13;95937.19;5105146;28;19966;-69
2023/07/21 06:20:16;;;;;;;;;;;;;;;18.94;64.11;95931.66;5105575;28;19955;-69
2023/07/21 06:22:42;;;;;;;;;;;;;;;18.83;63.89;95929.09;5104260;28;19942;-69
2023/07/21 06:25:08;;;;;;;;;;;;;;;18.76;65.55;95946.44;5105901;28;19936;-69
2023/07/21 06:27:34;;;;;;;;;;;;;;;18.72;65.01;95940.91;5105113;28;20031;-86
2023/07/21 06:30:00;;;;;;;;;;;;;;;18.73;65.26;95944.34;5104083;28;19939;-81
2023/07/21 06:32:25;;;;;;;;;;;;;;;18.74;65.47;95944.06;5105741;28;19937;-85
2023/07/21 06:34:52;;;;;;;;;;;;;;;18.68;65.00;95945.19;5105135;28;19943;-83
2023/07/21 06:37:18;;;;;;;;;;;;;;;18.53;65.33;95946.13;5105580;28;19941;-84
2023/07/21 06:39:48;;;;;;;;;;;;;;;18.39;66.57;95950.50;5104900;28;19954;-84
2023/07/21 06:42:14;;;;;;;;;;;;;;;18.30;65.85;95947.69;5104975;28;19939;-68
2023/07/21 06:44:40;;;;;;;;;;;;;;;18.25;66.15;95953.03;5087743;28;20012;-69
2023/07/21 06:47:05;;;;;;;;;;;;;;;18.22;66.51;95950.94;5104939;28;20211;-81
2023/07/21 06:49:31;;;;;;;;;;;;;;;18.24;66.81;95951.44;5104749;28;19981;-80
2023/07/21 06:51:57;;;;;;;;;;;;;;;18.33;66.88;95951.63;5086765;28;19968;-80
2023/07/21 06:54:23;;;;;;;;;;;;;;;18.53;66.38;95950.66;5104839;28;19933;-80
2023/07/21 06:56:49;;;;;;;;;;;;;;;18.79;65.68;95943.25;5104662;28;19962;-81
2023/07/21 06:59:15;;;;;;;;;;;;;;;18.91;64.89;95942.84;5104759;28;19934;-81
2023/07/21 07:01:42;;;;;;;;;;;;;;;18.94;64.58;95945.75;5105319;28;19963;-77
2023/07/21 07:04:08;;;;;;;;;;;;;;;18.97;64.15;95942.50;5103361;28;19943;-74
2023/07/21 07:06:34;;;;;;;;;;;;;;;18.95;64.62;95939.34;5104625;28;19940;-75
2023/07/21 07:08:59;;;;;;;;;;;;;;;19.09;64.39;95944.78;5105412;28;19997;-75
2023/07/21 07:11:26;;;;;;;;;;;;;;;19.37;65.65;95947.63;5105373;28;20178;-75
2023/07/21 07:13:51;;;;;;;;;;;;;;;19.55;63.89;95944.19;5104050;28;19936;-74
2023/07/21 07:16:17;;;;;;;;;;;;;;;19.56;62.83;95940.44;5103305;28;19932;-75
2023/07/21 07:18:43;;;;;;;;;;;;;;;19.51;61.83;95939.69;5104222;28;20051;-71
2023/07/21 07:21:09;;;;;;;;;;;;;;;19.48;62.25;95936.53;5104395;28;19950;-70
2023/07/21 07:23:35;;;;;;;;;;;;;;;19.48;62.16;95936.53;5103263;28;19941;-72
2023/07/21 07:26:01;;;;;;;;;;;;;;;19.76;62.19;95942.06;5104899;28;19960;-71
2023/07/21 07:28:27;;;;;;;;;;;;;;;20.14;62.13;95944.66;5103935;28;19930;-71
2023/07/21 07:30:53;;;;;;;;;;;;;;;20.53;58.89;95926.69;5086013;28;19950;-71
2023/07/21 07:33:19;;;;;;;;;;;;;;;20.78;59.32;95926.25;5086298;28;19940;-71
2023/07/21 07:35:49;;;;;;;;;;;;;;;21.08;57.50;95916.88;5086182;28;20236;-71
2023/07/21 07:38:26;;;;;;;;;;;;;;;21.36;57.31;95914.16;5104090;28;19946;-68
2023/07/21 07:40:53;;;;;;;;;;;;;;;21.59;54.83;95903.56;5103312;28;19948;-82
2023/07/21 07:43:19;;;;;;;;;;;;;;;21.80;56.19;95914.56;5104153;28;19934;-81
2023/07/21 07:45:44;;;;;;;;;;;;;;;22.02;55.24;95911.88;5104523;28;19934;-82
2023/07/21 07:48:11;;;;;;;;;;;;;;;22.15;54.31;95912.88;5103531;28;19940;-81
2023/07/21 07:50:39;;;;;;;;;;;;;;;22.14;53.40;95911.31;5103679;28;20237;-82
2023/07/21 07:53:06;;;;;;;;;;;;;;;22.19;52.82;95913.06;5103965;28;19943;-82
2023/07/21 07:55:38;;;;;;;;;;;;;;;22.27;51.97;95909.69;5103385;28;19936;-70
2023/07/21 07:58:04;;;;;;;;;;;;;;;22.44;51.91;95912.44;5086488;28;20208;-71
2023/07/21 08:00:30;;;;;;;;;;;;;;;22.54;49.70;95910.63;5102821;28;19954;-69
2023/07/21 08:02:56;;;;;;;;;;;;;;;22.65;52.46;95922.59;5103161;28;19940;-69
2023/07/21 08:05:22;;;;;;;;;;;;;;;22.87;51.44;95916.41;5104612;28;19937;-69
2023/07/21 08:07:48;;;;;;;;;;;;;;;23.06;51.16;95902.81;5086384;28;19940;-69
2023/07/21 08:10:14;;;;;;;;;;;;;;;23.13;50.58;95908.47;5102453;28;19947;-69
2023/07/21 08:12:40;;;;;;;;;;;;;;;23.33;49.69;95900.94;5103644;28;19946;-69
2023/07/21 08:15:06;;;;;;;;;;;;;;;23.42;49.21;95905.22;5103624;28;19935;-70
2023/07/21 08:17:35;;;;;;;;;;;;;;;23.37;49.50;95905.38;5103587;28;19967;-76
2023/07/21 08:20:01;;;;;;;;;;;;;;;23.20;48.27;95905.34;5104299;28;19943;-76
2023/07/21 08:22:27;;;;;;;;;;;;;;;23.00;48.82;95917.41;5103534;28;19933;-76
2023/07/21 08:24:53;;;;;;;;;;;;;;;22.87;48.57;95914.53;5103486;28;20006;-76
2023/07/21 08:27:20;;;;;;;;;;;;;;;22.74;48.36;95909.28;5103966;28;19942;-76
2023/07/21 08:29:46;;;;;;;;;;;;;;;22.64;48.76;95910.34;5103377;28;20245;-75
2023/07/21 08:32:12;;;;;;;;;;;;;;;22.55;50.02;95914.84;5104173;28;20107;-76
2023/07/21 08:34:38;;;;;;;;;;;;;;;22.59;50.36;95916.59;5102265;28;19947;-69
2023/07/21 08:37:05;;;;;;;;;;;;;;;22.92;49.10;95907.47;5103325;28;19944;-80
2023/07/21 08:39:31;;;;;;;;;;;;;;;23.27;48.55;95909.16;5103835;28;20115;-83
2023/07/21 08:41:59;;;;;;;;;;;;;;;23.61;46.61;95910.28;5105977;28;19960;-81
2023/07/21 08:44:25;;;;;;;;;;;;;;;23.90;44.81;95911.56;5107748;28;19937;-84
2023/07/21 08:46:51;;;;;;;;;;;;;;;24.16;46.13;95924.91;5106584;28;19932;-84
2023/07/21 08:49:18;;;;;;;;;;;;;;;24.37;42.61;95910.84;5106530;28;19983;-84
2023/07/21 08:51:44;;;;;;;;;;;;;;;24.51;43.26;95922.97;5107369;28;19939;-83
2023/07/21 08:54:10;;;;;;;;;;;;;;;24.57;41.22;95920.91;5105903;28;19944;-84
2023/07/21 08:56:36;;;;;;;;;;;;;;;24.58;41.10;95922.47;5106131;28;19961;-85
2023/07/21 08:59:02;;;;;;;;;;;;;;;24.47;43.20;95927.38;5106776;28;19980;-83
2023/07/21 09:01:28;;;;;;;;;;;;;;;24.35;43.24;95924.56;5107341;28;19962;-84
2023/07/21 09:03:54;;;;;;;;;;;;;;;24.34;42.64;95933.72;5106192;28;19949;-83
2023/07/21 09:06:20;;;;;;;;;;;;;;;24.38;42.21;95931.97;5106190;28;19935;-81
2023/07/21 09:08:48;;;;;;;;;;;;;;;24.42;44.08;95929.41;5107391;28;19938;-83
2023/07/21 09:11:16;;;;;;;;;;;;;;;24.60;44.48;95933.66;5088678;28;19940;-72
2023/07/21 09:13:50;;;;;;;;;;;;;;;24.83;43.79;95928.84;5105514;28;20128;-70
2023/07/21 09:16:16;;;;;;;;;;;;;;;24.96;41.65;95928.94;5106294;28;19944;-70
2023/07/21 09:18:42;;;;;;;;;;;;;;;24.93;41.16;95927.69;5106364;28;20032;-70
2023/07/21 09:21:17;;;;;;;;;;;;;;;24.69;41.74;95928.25;5106905;28;19955;-70
2023/07/21 09:23:43;;;;;;;;;;;;;;;24.35;40.52;95924.56;5107092;28;19936;-71
2023/07/21 09:26:08;;;;;;;;;;;;;;;24.22;41.79;95933.56;5106405;28;19947;-70
2023/07/21 09:28:41;;;;;;;;;;;;;;;24.11;42.52;95928.56;5107057;28;19938;-83
2023/07/21 09:31:08;;;;;;;;;;;;;;;24.00;42.38;95930.00;5105148;28;20106;-83
2023/07/21 09:33:38;;;;;;;;;;;;;;;23.98;43.10;95937.56;5105020;28;20014;-82
2023/07/21 09:36:07;;;;;;;;;;;;;;;23.99;43.08;95935.66;5106665;28;19938;-81
2023/07/21 09:38:34;;;;;;;;;;;;;;;23.93;43.62;95926.22;5106337;28;20085;-83
2023/07/21 09:41:07;;;;;;;;;;;;;;;24.03;43.05;95920.53;5105957;28;19955;-83
2023/07/21 09:43:33;;;;;;;;;;;;;;;24.24;42.78;95918.75;5106738;28;19939;-82
2023/07/21 09:46:06;;;;;;;;;;;;;;;24.48;42.48;95917.41;5106414;28;19941;-76
2023/07/21 09:48:33;;;;;;;;;;;;;;;24.66;41.26;95905.56;5104744;28;20095;-72
2023/07/21 09:51:00;;;;;;;;;;;;;;;24.81;43.44;95909.59;5087939;28;19959;-75
2023/07/21 09:53:46;;;;;;;;;;;;;;;24.87;42.50;95902.16;5105605;28;19942;-75
2023/07/21 09:56:13;;;;;;;;;;;;;;;24.91;40.98;95903.09;5105547;28;19951;-75
2023/07/21 09:58:50;;;;;;;;;;;;;;;24.90;40.94;95904.19;5106582;28;20204;-75
2023/07/21 10:01:16;;;;;;;;;;;;;;;24.86;41.50;95898.72;5104562;28;20241;-75
2023/07/21 10:03:43;;;;;;;;;;;;;;;24.96;42.00;95896.75;5105661;28;20127;-75
2023/07/21 10:06:09;;;;;;;;;;;;;;;25.05;40.75;95897.47;5105693;28;19934;-74
2023/07/21 10:08:36;;;;;;;;;;;;;;;25.14;41.23;95902.81;5104273;28;19940;-83
2023/07/21 10:11:04;;;;;;;;;;;;;;;25.21;39.99;95897.75;5105566;28;19940;-84
2023/07/21 10:13:31;;;;;;;;;;;;;;;25.26;40.10;95895.66;5104303;28;20246;-84
2023/07/21 10:16:01;;;;;;;;;;;;;;;25.33;41.04;95907.78;5105400;28;20222;-84
2023/07/21 10:18:27;;;;;;;;;;;;;;;25.40;40.76;95905.34;5105177;28;19964;-83
2023/07/21 10:20:54;;;;;;;;;;;;;;;25.41;38.44;95898.88;5104875;28;19963;-82
2023/07/21 10:23:25;;;;;;;;;;;;;;;25.34;38.85;95901.28;5105327;28;19935;-75
2023/07/21 10:25:51;;;;;;;;;;;;;;;25.31;40.91;95906.19;5104858;28;19936;-82
2023/07/21 10:28:30;;;;;;;;;;;;;;;25.35;39.81;95910.94;5105190;28;20129;-83
2023/07/21 10:31:14;;;;;;;;;;;;;;;25.25;38.97;95904.03;5087699;28;19934;-84
2023/07/21 10:33:40;;;;;;;;;;;;;;;25.16;39.56;95906.75;5103844;28;20138;-83
2023/07/21 10:36:14;;;;;;;;;;;;;;;25.17;38.65;95900.25;5105906;28;19996;-83
2023/07/21 10:38:40;;;;;;;;;;;;;;;25.32;38.26;95904.28;5104671;28;19938;-83
2023/07/21 10:41:06;;;;;;;;;;;;;;;25.42;38.12;95898.53;5103787;28;20150;-84
2023/07/21 10:43:32;;;;;;;;;;;;;;;25.69;39.25;95904.50;5105682;28;19936;-72
2023/07/21 10:45:58;;;;;;;;;;;;;;;25.91;39.83;95898.81;5104804;28;19991;-69
2023/07/21 10:48:25;;;;;;;;;;;;;;;26.20;39.25;95897.09;5105581;28;19962;-69
2023/07/21 10:50:54;;;;;;;;;;;;;;;26.28;38.53;95906.22;5086782;28;19941;-69
2023/07/21 10:53:21;;;;;;;;;;;;;;;26.15;39.84;95901.94;5087427;28;19938;-70
2023/07/21 10:55:49;;;;;;;;;;;;;;;25.89;37.89;95906.44;5103492;28;19939;-69
2023/07/21 10:58:15;;;;;;;;;;;;;;;25.61;37.99;95916.09;5103402;28;19942;-69
2023/07/21 11:00:45;;;;;;;;;;;;;;;25.40;38.46;95918.78;5103140;28;19963;-86
2023/07/21 11:03:11;;;;;;;;;;;;;;;25.25;39.13;95920.91;5102810;28;19942;-70
2023/07/21 11:05:37;;;;;;;;;;;;;;;25.17;38.25;95918.25;5102895;28;19946;-71
2023/07/21 11:08:03;;;;;;;;;;;;;;;25.07;39.89;95919.41;5104492;28;20032;-71
2023/07/21 11:10:33;;;;;;;;;;;;;;;25.03;38.28;95921.97;5103207;28;19952;-71
2023/07/21 11:12:59;;;;;;;;;;;;;;;24.98;37.60;95918.69;5103073;28;19938;-71
2023/07/21 11:15:25;;;;;;;;;;;;;;;24.86;38.81;95917.50;5104277;28;19939;-71
2023/07/21 11:17:59;;;;;;;;;;;;;;;24.74;38.73;95927.28;5104141;28;19967;-72
2023/07/21 11:20:24;;;;;;;;;;;;;;;24.67;38.80;95923.25;5103544;28;19941;-83
2023/07/21 11:22:50;;;;;;;;;;;;;;;24.64;40.62;95926.56;5086891;28;19938;-70
2023/07/21 11:25:16;;;;;;;;;;;;;;;24.65;40.25;95924.66;5104803;28;19939;-69
2023/07/21 11:27:42;;;;;;;;;;;;;;;24.61;38.23;95916.47;5103211;28;20228;-69
2023/07/21 11:30:08;;;;;;;;;;;;;;;24.51;38.36;95917.59;5103131;28;20117;-70
2023/07/21 11:32:37;;;;;;;;;;;;;;;24.41;39.19;95912.56;5103428;28;19939;-69
2023/07/21 11:35:03;;;;;;;;;;;;;;;24.30;40.02;95927.41;5102970;28;19944;-69
2023/07/21 11:37:37;;;;;;;;;;;;;;;24.18;41.05;95925.38;5103002;28;19944;-74
2023/07/21 11:40:15;;;;;;;;;;;;;;;24.10;41.21;95926.19;5103759;28;19941;-72
2023/07/21 11:42:41;;;;;;;;;;;;;;;24.04;42.40;95930.94;5104831;28;19951;-72
2023/07/21 11:45:28;;;;;;;;;;;;;;;24.02;42.96;95930.47;5102877;28;19948;-72
2023/07/21 11:47:53;;;;;;;;;;;;;;;23.98;43.30;95931.38;5086037;28;19942;-71
2023/07/21 11:50:19;;;;;;;;;;;;;;;23.91;43.13;95934.53;5103975;28;20166;-71
2023/07/21 11:52:46;;;;;;;;;;;;;;;23.83;42.79;95936.16;5103983;28;19997;-71
2023/07/21 11:55:12;;;;;;;;;;;;;;;23.70;43.03;95934.38;5103048;28;19934;-75
2023/07/21 11:57:38;;;;;;;;;;;;;;;23.55;42.32;95937.50;5103766;28;20220;-70
2023/07/21 12:00:11;;;;;;;;;;;;;;;23.34;43.03;95943.47;5103588;28;19937;-85
2023/07/21 12:02:39;;;;;;;;;;;;;;;23.10;43.47;95935.88;5103806;28;19949;-85
2023/07/21 12:05:05;;;;;;;;;;;;;;;22.91;43.74;95936.09;5103446;28;20210;-85
2023/07/21 12:07:31;;;;;;;;;;;;;;;22.76;44.89;95945.28;5103572;28;19944;-84
2023/07/21 12:09:59;;;;;;;;;;;;;;;22.63;46.36;95943.50;5085815;28;20224;-84
2023/07/21 12:12:24;;;;;;;;;;;;;;;22.54;45.46;95940.00;5103472;28;19936;-86
2023/07/21 12:14:50;;;;;;;;;;;;;;;22.50;45.91;95942.50;5103180;28;20229;-76
2023/07/21 12:17:17;;;;;;;;;;;;;;;22.49;46.99;95948.97;5107645;28;19940;-72
2023/07/21 12:19:43;;;;;;;;;;;;;;;22.50;47.52;95958.53;5107066;28;19948;-72
2023/07/21 12:22:10;;;;;;;;;;;;;;;22.51;47.36;95949.44;5089343;28;19955;-71
2023/07/21 12:24:36;;;;;;;;;;;;;;;22.50;47.95;95961.22;5108444;28;19933;-71
2023/07/21 12:27:04;;;;;;;;;;;;;;;22.42;46.26;95957.38;5107845;28;19933;-72
2023/07/21 12:29:30;;;;;;;;;;;;;;;22.35;47.06;95966.94;5106410;28;19949;-71
2023/07/21 12:31:56;;;;;;;;;;;;;;;22.29;48.88;95964.38;5107762;28;20144;-81
2023/07/21 12:34:22;;;;;;;;;;;;;;;22.28;49.71;95962.03;5107515;28;19934;-74
2023/07/21 12:36:49;;;;;;;;;;;;;;;22.29;49.10;95969.72;5106020;28;19939;-69
2023/07/21 12:39:14;;;;;;;;;;;;;;;22.30;49.16;95962.53;5106777;28;20108;-68
2023/07/21 12:41:40;;;;;;;;;;;;;;;22.34;48.61;95957.34;5107869;28;19963;-69
2023/07/21 12:44:06;;;;;;;;;;;;;;;22.32;48.76;95960.31;5106932;28;19947;-69
2023/07/21 12:46:32;;;;;;;;;;;;;;;22.31;48.32;95952.63;5089243;28;19934;-69